sensor_id;sensor_type;location;lat;lon;timestamp;P1;durP1;ratioP1;P2;durP2;ratioP2
2053;SDS011;1032;52.542;13.440;2023-06-26T00:02:14;12.27;;;10.40;;
2053;SDS011;1032;52.542;13.440;2023-06-26T00:04:41;12.93;;;11.67;;
2053;SDS011;1032;52.542;13.440;2023-06-26T00:07:08;15.60;;;12.37;;
2053;SDS011;1032;52.542;13.440;2023-06-26T00:09:35;14.57;;;12.90;;
2053;SDS011;1032;52.542;13.440;2023-06-26T00:12:02;13.60;;;12.27;;
2053;SDS011;1032;52.542;13.440;2023-06-26T00:14:29;13.47;;;12.07;;
2053;SDS011;1032;52.542;13.440;2023-06-26T00:16:57;12.10;;;10.80;;
2053;SDS011;1032;52.542;13.440;2023-06-26T00:19:23;13.90;;;12.40;;
2053;SDS011;1032;52.542;13.440;2023-06-26T00:21:50;12.37;;;11.13;;
2053;SDS011;1032;52.542;13.440;2023-06-26T00:24:17;11.57;;;10.40;;
2053;SDS011;1032;52.542;13.440;2023-06-26T00:26:46;12.30;;;11.07;;
2053;SDS011;1032;52.542;13.440;2023-06-26T00:29:13;13.70;;;12.10;;
2053;SDS011;1032;52.542;13.440;2023-06-26T00:31:40;11.60;;;10.50;;
2053;SDS011;1032;52.542;13.440;2023-06-26T00:34:08;12.63;;;11.33;;
2053;SDS011;1032;52.542;13.440;2023-06-26T00:36:35;14.00;;;12.60;;
2053;SDS011;1032;52.542;13.440;2023-06-26T00:39:02;12.13;;;10.93;;
2053;SDS011;1032;52.542;13.440;2023-06-26T00:41:30;12.43;;;11.33;;
2053;SDS011;1032;52.542;13.440;2023-06-26T00:43:57;14.87;;;12.43;;
2053;SDS011;1032;52.542;13.440;2023-06-26T00:46:25;12.30;;;11.20;;
2053;SDS011;1032;52.542;13.440;2023-06-26T00:48:52;13.27;;;11.97;;
2053;SDS011;1032;52.542;13.440;2023-06-26T00:51:22;13.40;;;12.10;;
2053;SDS011;1032;52.542;13.440;2023-06-26T00:53:49;13.90;;;12.50;;
2053;SDS011;1032;52.542;13.440;2023-06-26T00:56:17;12.30;;;11.20;;
2053;SDS011;1032;52.542;13.440;2023-06-26T00:58:45;12.10;;;11.10;;
2053;SDS011;1032;52.542;13.440;2023-06-26T01:01:11;11.70;;;10.50;;
2053;SDS011;1032;52.542;13.440;2023-06-26T01:03:40;12.17;;;11.07;;
2053;SDS011;1032;52.542;13.440;2023-06-26T01:06:08;12.77;;;11.63;;
2053;SDS011;1032;52.542;13.440;2023-06-26T01:08:39;13.70;;;12.37;;
2053;SDS011;1032;52.542;13.440;2023-06-26T01:11:07;13.53;;;12.43;;
2053;SDS011;1032;52.542;13.440;2023-06-26T01:13:33;12.93;;;11.73;;
2053;SDS011;1032;52.542;13.440;2023-06-26T01:16:01;13.13;;;11.80;;
2053;SDS011;1032;52.542;13.440;2023-06-26T01:18:29;14.10;;;12.70;;
2053;SDS011;1032;52.542;13.440;2023-06-26T01:20:58;12.70;;;11.57;;
2053;SDS011;1032;52.542;13.440;2023-06-26T01:23:29;13.30;;;12.10;;
2053;SDS011;1032;52.542;13.440;2023-06-26T01:26:12;13.77;;;12.40;;
2053;SDS011;1032;52.542;13.440;2023-06-26T01:28:42;12.63;;;11.50;;
2053;SDS011;1032;52.542;13.440;2023-06-26T01:31:10;13.30;;;10.97;;
2053;SDS011;1032;52.542;13.440;2023-06-26T01:33:38;13.53;;;12.23;;
2053;SDS011;1032;52.542;13.440;2023-06-26T01:36:06;11.53;;;10.33;;
2053;SDS011;1032;52.542;13.440;2023-06-26T01:38:34;11.80;;;10.70;;
2053;SDS011;1032;52.542;13.440;2023-06-26T01:41:01;13.77;;;12.23;;
2053;SDS011;1032;52.542;13.440;2023-06-26T01:43:31;14.63;;;13.33;;
2053;SDS011;1032;52.542;13.440;2023-06-26T01:46:07;13.33;;;12.13;;
2053;SDS011;1032;52.542;13.440;2023-06-26T01:48:38;12.40;;;11.20;;
2053;SDS011;1032;52.542;13.440;2023-06-26T01:51:10;14.13;;;12.57;;
2053;SDS011;1032;52.542;13.440;2023-06-26T01:53:41;13.40;;;11.13;;
2053;SDS011;1032;52.542;13.440;2023-06-26T01:56:13;14.03;;;12.63;;
2053;SDS011;1032;52.542;13.440;2023-06-26T01:58:45;14.10;;;12.80;;
2053;SDS011;1032;52.542;13.440;2023-06-26T02:01:13;13.43;;;12.23;;
2053;SDS011;1032;52.542;13.440;2023-06-26T02:03:39;13.93;;;12.60;;
2053;SDS011;1032;52.542;13.440;2023-06-26T02:06:06;17.63;;;14.87;;
2053;SDS011;1032;52.542;13.440;2023-06-26T02:08:33;16.13;;;14.53;;
2053;SDS011;1032;52.542;13.440;2023-06-26T02:10:59;13.63;;;12.30;;
2053;SDS011;1032;52.542;13.440;2023-06-26T02:13:26;13.73;;;12.50;;
2053;SDS011;1032;52.542;13.440;2023-06-26T02:15:54;13.20;;;12.20;;
2053;SDS011;1032;52.542;13.440;2023-06-26T02:18:21;13.83;;;12.63;;
2053;SDS011;1032;52.542;13.440;2023-06-26T02:20:48;13.53;;;12.30;;
2053;SDS011;1032;52.542;13.440;2023-06-26T02:23:15;15.00;;;13.60;;
2053;SDS011;1032;52.542;13.440;2023-06-26T02:25:41;14.43;;;13.17;;
2053;SDS011;1032;52.542;13.440;2023-06-26T02:28:08;14.23;;;12.93;;
2053;SDS011;1032;52.542;13.440;2023-06-26T02:30:35;13.73;;;12.47;;
2053;SDS011;1032;52.542;13.440;2023-06-26T02:33:03;14.40;;;13.20;;
2053;SDS011;1032;52.542;13.440;2023-06-26T02:35:29;15.73;;;14.23;;
2053;SDS011;1032;52.542;13.440;2023-06-26T02:37:58;14.93;;;13.37;;
2053;SDS011;1032;52.542;13.440;2023-06-26T02:40:24;13.67;;;12.40;;
2053;SDS011;1032;52.542;13.440;2023-06-26T02:42:51;14.37;;;12.93;;
2053;SDS011;1032;52.542;13.440;2023-06-26T02:45:19;14.93;;;13.50;;
2053;SDS011;1032;52.542;13.440;2023-06-26T02:47:46;14.53;;;13.10;;
2053;SDS011;1032;52.542;13.440;2023-06-26T02:50:14;14.83;;;13.37;;
2053;SDS011;1032;52.542;13.440;2023-06-26T02:53:01;14.30;;;13.00;;
2053;SDS011;1032;52.542;13.440;2023-06-26T02:55:28;14.60;;;13.20;;
2053;SDS011;1032;52.542;13.440;2023-06-26T02:57:55;17.70;;;14.33;;
2053;SDS011;1032;52.542;13.440;2023-06-26T03:00:22;14.30;;;13.07;;
2053;SDS011;1032;52.542;13.440;2023-06-26T03:02:51;14.17;;;12.83;;
2053;SDS011;1032;52.542;13.440;2023-06-26T03:05:20;15.67;;;14.00;;
2053;SDS011;1032;52.542;13.440;2023-06-26T03:07:49;18.90;;;15.23;;
2053;SDS011;1032;52.542;13.440;2023-06-26T03:10:15;15.30;;;13.90;;
2053;SDS011;1032;52.542;13.440;2023-06-26T03:12:43;15.80;;;14.40;;
2053;SDS011;1032;52.542;13.440;2023-06-26T03:15:10;16.97;;;15.33;;
2053;SDS011;1032;52.542;13.440;2023-06-26T03:17:38;17.07;;;13.80;;
2053;SDS011;1032;52.542;13.440;2023-06-26T03:20:08;16.57;;;15.10;;
2053;SDS011;1032;52.542;13.440;2023-06-26T03:22:52;16.27;;;14.67;;
2053;SDS011;1032;52.542;13.440;2023-06-26T03:25:20;15.27;;;13.93;;
2053;SDS011;1032;52.542;13.440;2023-06-26T03:27:47;15.17;;;13.80;;
2053;SDS011;1032;52.542;13.440;2023-06-26T03:30:16;16.20;;;14.80;;
2053;SDS011;1032;52.542;13.440;2023-06-26T03:32:45;17.27;;;14.87;;
2053;SDS011;1032;52.542;13.440;2023-06-26T03:35:12;17.30;;;15.37;;
2053;SDS011;1032;52.542;13.440;2023-06-26T03:37:38;17.50;;;16.00;;
2053;SDS011;1032;52.542;13.440;2023-06-26T03:40:08;18.23;;;16.63;;
2053;SDS011;1032;52.542;13.440;2023-06-26T03:42:36;17.23;;;15.70;;
2053;SDS011;1032;52.542;13.440;2023-06-26T03:45:03;17.83;;;16.03;;
2053;SDS011;1032;52.542;13.440;2023-06-26T03:47:31;18.60;;;16.60;;
2053;SDS011;1032;52.542;13.440;2023-06-26T03:49:58;17.47;;;15.57;;
2053;SDS011;1032;52.542;13.440;2023-06-26T03:52:25;16.97;;;15.30;;
2053;SDS011;1032;52.542;13.440;2023-06-26T03:54:51;16.93;;;15.23;;
2053;SDS011;1032;52.542;13.440;2023-06-26T03:57:19;17.87;;;16.27;;
2053;SDS011;1032;52.542;13.440;2023-06-26T03:59:46;18.93;;;17.33;;
2053;SDS011;1032;52.542;13.440;2023-06-26T04:02:13;18.57;;;16.93;;
2053;SDS011;1032;52.542;13.440;2023-06-26T04:04:42;18.20;;;16.50;;
2053;SDS011;1032;52.542;13.440;2023-06-26T04:07:08;20.57;;;16.37;;
2053;SDS011;1032;52.542;13.440;2023-06-26T04:09:36;17.93;;;16.53;;
2053;SDS011;1032;52.542;13.440;2023-06-26T04:12:03;19.97;;;17.97;;
2053;SDS011;1032;52.542;13.440;2023-06-26T04:14:31;18.57;;;16.80;;
2053;SDS011;1032;52.542;13.440;2023-06-26T04:16:58;16.63;;;15.23;;
2053;SDS011;1032;52.542;13.440;2023-06-26T04:19:26;16.43;;;14.83;;
2053;SDS011;1032;52.542;13.440;2023-06-26T04:21:53;17.03;;;15.33;;
2053;SDS011;1032;52.542;13.440;2023-06-26T04:24:20;16.87;;;15.37;;
2053;SDS011;1032;52.542;13.440;2023-06-26T04:26:46;16.63;;;15.20;;
2053;SDS011;1032;52.542;13.440;2023-06-26T04:29:13;20.33;;;15.83;;
2053;SDS011;1032;52.542;13.440;2023-06-26T04:31:41;14.63;;;13.40;;
2053;SDS011;1032;52.542;13.440;2023-06-26T04:34:11;15.40;;;14.13;;
2053;SDS011;1032;52.542;13.440;2023-06-26T04:36:38;14.63;;;13.33;;
2053;SDS011;1032;52.542;13.440;2023-06-26T04:39:05;15.33;;;13.97;;
2053;SDS011;1032;52.542;13.440;2023-06-26T04:41:32;15.43;;;13.70;;
2053;SDS011;1032;52.542;13.440;2023-06-26T04:43:58;14.27;;;13.03;;
2053;SDS011;1032;52.542;13.440;2023-06-26T04:46:25;15.40;;;14.00;;
2053;SDS011;1032;52.542;13.440;2023-06-26T04:48:54;16.20;;;14.57;;
2053;SDS011;1032;52.542;13.440;2023-06-26T04:51:23;14.97;;;13.67;;
2053;SDS011;1032;52.542;13.440;2023-06-26T04:53:49;16.13;;;14.63;;
2053;SDS011;1032;52.542;13.440;2023-06-26T04:56:16;16.80;;;15.20;;
2053;SDS011;1032;52.542;13.440;2023-06-26T04:58:42;16.80;;;15.40;;
2053;SDS011;1032;52.542;13.440;2023-06-26T05:01:09;15.83;;;14.20;;
2053;SDS011;1032;52.542;13.440;2023-06-26T05:03:38;16.33;;;14.63;;
2053;SDS011;1032;52.542;13.440;2023-06-26T05:06:07;16.30;;;14.63;;
2053;SDS011;1032;52.542;13.440;2023-06-26T05:08:33;15.30;;;13.90;;
2053;SDS011;1032;52.542;13.440;2023-06-26T05:11:00;15.40;;;14.00;;
2053;SDS011;1032;52.542;13.440;2023-06-26T05:13:26;15.30;;;13.97;;
2053;SDS011;1032;52.542;13.440;2023-06-26T05:15:53;14.63;;;12.83;;
2053;SDS011;1032;52.542;13.440;2023-06-26T05:18:19;15.13;;;13.73;;
2053;SDS011;1032;52.542;13.440;2023-06-26T05:20:46;14.17;;;12.93;;
2053;SDS011;1032;52.542;13.440;2023-06-26T05:23:15;17.37;;;13.60;;
2053;SDS011;1032;52.542;13.440;2023-06-26T05:25:42;15.23;;;13.73;;
2053;SDS011;1032;52.542;13.440;2023-06-26T05:28:10;15.90;;;13.47;;
2053;SDS011;1032;52.542;13.440;2023-06-26T05:30:37;12.60;;;11.50;;
2053;SDS011;1032;52.542;13.440;2023-06-26T05:33:04;13.83;;;12.43;;
2053;SDS011;1032;52.542;13.440;2023-06-26T05:35:33;14.00;;;12.60;;
2053;SDS011;1032;52.542;13.440;2023-06-26T05:38:02;14.90;;;13.40;;
2053;SDS011;1032;52.542;13.440;2023-06-26T05:40:30;14.40;;;12.97;;
2053;SDS011;1032;52.542;13.440;2023-06-26T05:42:59;14.33;;;12.93;;
2053;SDS011;1032;52.542;13.440;2023-06-26T05:45:26;15.90;;;14.40;;
2053;SDS011;1032;52.542;13.440;2023-06-26T05:47:52;13.40;;;12.20;;
2053;SDS011;1032;52.542;13.440;2023-06-26T05:50:19;14.20;;;12.90;;
2053;SDS011;1032;52.542;13.440;2023-06-26T05:52:46;13.87;;;12.53;;
2053;SDS011;1032;52.542;13.440;2023-06-26T05:55:14;14.70;;;13.30;;
2053;SDS011;1032;52.542;13.440;2023-06-26T05:57:42;14.20;;;12.80;;
2053;SDS011;1032;52.542;13.440;2023-06-26T06:00:11;12.90;;;11.67;;
2053;SDS011;1032;52.542;13.440;2023-06-26T06:02:39;12.83;;;11.67;;
2053;SDS011;1032;52.542;13.440;2023-06-26T06:05:06;14.93;;;13.53;;
2053;SDS011;1032;52.542;13.440;2023-06-26T06:07:33;14.80;;;12.80;;
2053;SDS011;1032;52.542;13.440;2023-06-26T06:10:01;13.00;;;11.60;;
2053;SDS011;1032;52.542;13.440;2023-06-26T06:12:29;12.77;;;11.57;;
2053;SDS011;1032;52.542;13.440;2023-06-26T06:14:57;12.10;;;11.00;;
2053;SDS011;1032;52.542;13.440;2023-06-26T06:17:24;14.80;;;11.50;;
2053;SDS011;1032;52.542;13.440;2023-06-26T06:19:50;12.77;;;11.50;;
2053;SDS011;1032;52.542;13.440;2023-06-26T06:22:17;12.00;;;10.87;;
2053;SDS011;1032;52.542;13.440;2023-06-26T06:24:44;10.83;;;9.80;;
2053;SDS011;1032;52.542;13.440;2023-06-26T06:27:10;13.20;;;11.83;;
2053;SDS011;1032;52.542;13.440;2023-06-26T06:29:38;12.33;;;11.23;;
2053;SDS011;1032;52.542;13.440;2023-06-26T06:32:06;10.93;;;9.93;;
2053;SDS011;1032;52.542;13.440;2023-06-26T06:34:33;11.60;;;10.17;;
2053;SDS011;1032;52.542;13.440;2023-06-26T06:37:01;12.53;;;10.97;;
2053;SDS011;1032;52.542;13.440;2023-06-26T06:39:28;13.83;;;10.23;;
2053;SDS011;1032;52.542;13.440;2023-06-26T06:41:55;12.97;;;9.80;;
2053;SDS011;1032;52.542;13.440;2023-06-26T06:44:22;11.70;;;9.97;;
2053;SDS011;1032;52.542;13.440;2023-06-26T06:46:48;11.13;;;9.93;;
2053;SDS011;1032;52.542;13.440;2023-06-26T06:49:16;13.33;;;10.70;;
2053;SDS011;1032;52.542;13.440;2023-06-26T06:51:43;10.23;;;9.23;;
2053;SDS011;1032;52.542;13.440;2023-06-26T06:54:09;10.50;;;9.47;;
2053;SDS011;1032;52.542;13.440;2023-06-26T06:56:36;9.20;;;8.20;;
2053;SDS011;1032;52.542;13.440;2023-06-26T06:59:02;10.13;;;9.13;;
2053;SDS011;1032;52.542;13.440;2023-06-26T07:01:29;9.10;;;8.27;;
2053;SDS011;1032;52.542;13.440;2023-06-26T07:03:56;14.37;;;8.03;;
2053;SDS011;1032;52.542;13.440;2023-06-26T07:06:24;9.90;;;8.90;;
2053;SDS011;1032;52.542;13.440;2023-06-26T07:08:50;9.50;;;8.50;;
2053;SDS011;1032;52.542;13.440;2023-06-26T07:11:17;9.20;;;8.40;;
2053;SDS011;1032;52.542;13.440;2023-06-26T07:13:43;9.03;;;8.13;;
2053;SDS011;1032;52.542;13.440;2023-06-26T07:16:10;8.17;;;7.37;;
2053;SDS011;1032;52.542;13.440;2023-06-26T07:18:37;9.57;;;7.90;;
2053;SDS011;1032;52.542;13.440;2023-06-26T07:21:04;10.57;;;8.30;;
2053;SDS011;1032;52.542;13.440;2023-06-26T07:23:32;10.50;;;7.97;;
2053;SDS011;1032;52.542;13.440;2023-06-26T07:25:58;9.10;;;7.43;;
2053;SDS011;1032;52.542;13.440;2023-06-26T07:28:25;8.10;;;7.30;;
2053;SDS011;1032;52.542;13.440;2023-06-26T07:30:52;11.30;;;8.50;;
2053;SDS011;1032;52.542;13.440;2023-06-26T07:35:55;11.43;;;7.70;;
2053;SDS011;1032;52.542;13.440;2023-06-26T07:38:21;10.57;;;8.20;;
2053;SDS011;1032;52.542;13.440;2023-06-26T07:40:49;10.80;;;7.40;;
2053;SDS011;1032;52.542;13.440;2023-06-26T07:43:16;8.27;;;6.97;;
2053;SDS011;1032;52.542;13.440;2023-06-26T07:45:43;7.40;;;6.70;;
2053;SDS011;1032;52.542;13.440;2023-06-26T07:48:09;7.50;;;6.77;;
2053;SDS011;1032;52.542;13.440;2023-06-26T07:50:36;7.40;;;6.60;;
2053;SDS011;1032;52.542;13.440;2023-06-26T07:53:03;7.90;;;7.10;;
2053;SDS011;1032;52.542;13.440;2023-06-26T07:55:30;11.67;;;7.33;;
2053;SDS011;1032;52.542;13.440;2023-06-26T07:57:58;9.13;;;7.33;;
2053;SDS011;1032;52.542;13.440;2023-06-26T08:00:26;9.23;;;6.83;;
2053;SDS011;1032;52.542;13.440;2023-06-26T08:02:53;6.63;;;6.03;;
2053;SDS011;1032;52.542;13.440;2023-06-26T08:05:19;7.77;;;6.60;;
2053;SDS011;1032;52.542;13.440;2023-06-26T08:07:46;11.73;;;7.10;;
2053;SDS011;1032;52.542;13.440;2023-06-26T08:10:13;6.20;;;5.60;;
2053;SDS011;1032;52.542;13.440;2023-06-26T08:12:39;6.83;;;6.13;;
2053;SDS011;1032;52.542;13.440;2023-06-26T08:15:09;10.47;;;6.47;;
2053;SDS011;1032;52.542;13.440;2023-06-26T08:17:35;6.90;;;6.30;;
2053;SDS011;1032;52.542;13.440;2023-06-26T08:20:03;7.70;;;6.67;;
2053;SDS011;1032;52.542;13.440;2023-06-26T08:22:33;7.20;;;6.50;;
2053;SDS011;1032;52.542;13.440;2023-06-26T08:24:59;8.73;;;6.07;;
2053;SDS011;1032;52.542;13.440;2023-06-26T08:27:26;15.10;;;7.50;;
2053;SDS011;1032;52.542;13.440;2023-06-26T08:29:52;10.40;;;6.60;;
2053;SDS011;1032;52.542;13.440;2023-06-26T08:32:20;7.00;;;6.40;;
2053;SDS011;1032;52.542;13.440;2023-06-26T08:34:47;6.63;;;6.03;;
2053;SDS011;1032;52.542;13.440;2023-06-26T08:37:13;10.00;;;5.90;;
2053;SDS011;1032;52.542;13.440;2023-06-26T08:39:40;7.50;;;5.70;;
2053;SDS011;1032;52.542;13.440;2023-06-26T08:42:07;6.53;;;5.93;;
2053;SDS011;1032;52.542;13.440;2023-06-26T08:44:34;7.17;;;6.47;;
2053;SDS011;1032;52.542;13.440;2023-06-26T08:47:00;7.20;;;6.40;;
2053;SDS011;1032;52.542;13.440;2023-06-26T08:49:30;7.90;;;5.70;;
2053;SDS011;1032;52.542;13.440;2023-06-26T08:52:05;6.00;;;5.37;;
2053;SDS011;1032;52.542;13.440;2023-06-26T08:54:38;6.80;;;5.20;;
2053;SDS011;1032;52.542;13.440;2023-06-26T08:57:10;6.37;;;5.77;;
2053;SDS011;1032;52.542;13.440;2023-06-26T08:59:38;5.13;;;4.73;;
2053;SDS011;1032;52.542;13.440;2023-06-26T09:02:05;6.30;;;5.37;;
2053;SDS011;1032;52.542;13.440;2023-06-26T09:04:34;5.37;;;4.87;;
2053;SDS011;1032;52.542;13.440;2023-06-26T09:07:01;7.53;;;6.03;;
2053;SDS011;1032;52.542;13.440;2023-06-26T09:09:28;6.63;;;5.20;;
2053;SDS011;1032;52.542;13.440;2023-06-26T09:11:55;5.27;;;4.63;;
2053;SDS011;1032;52.542;13.440;2023-06-26T09:14:21;6.40;;;5.43;;
2053;SDS011;1032;52.542;13.440;2023-06-26T09:16:49;5.73;;;4.63;;
2053;SDS011;1032;52.542;13.440;2023-06-26T09:19:15;5.17;;;4.63;;
2053;SDS011;1032;52.542;13.440;2023-06-26T09:21:43;5.70;;;5.20;;
2053;SDS011;1032;52.542;13.440;2023-06-26T09:24:10;5.60;;;5.10;;
2053;SDS011;1032;52.542;13.440;2023-06-26T09:26:37;6.23;;;5.60;;
2053;SDS011;1032;52.542;13.440;2023-06-26T09:29:04;6.47;;;4.70;;
2053;SDS011;1032;52.542;13.440;2023-06-26T09:31:32;6.30;;;5.30;;
2053;SDS011;1032;52.542;13.440;2023-06-26T09:33:59;5.97;;;5.27;;
2053;SDS011;1032;52.542;13.440;2023-06-26T09:36:27;5.20;;;4.70;;
2053;SDS011;1032;52.542;13.440;2023-06-26T09:38:59;5.50;;;4.63;;
2053;SDS011;1032;52.542;13.440;2023-06-26T09:41:26;6.13;;;5.53;;
2053;SDS011;1032;52.542;13.440;2023-06-26T09:43:53;15.07;;;6.10;;
2053;SDS011;1032;52.542;13.440;2023-06-26T09:46:24;7.93;;;5.60;;
2053;SDS011;1032;52.542;13.440;2023-06-26T09:48:57;7.07;;;5.00;;
2053;SDS011;1032;52.542;13.440;2023-06-26T09:51:25;5.70;;;4.70;;
2053;SDS011;1032;52.542;13.440;2023-06-26T09:53:52;7.00;;;6.37;;
2053;SDS011;1032;52.542;13.440;2023-06-26T09:56:20;6.43;;;4.53;;
2053;SDS011;1032;52.542;13.440;2023-06-26T09:58:47;5.63;;;5.13;;
2053;SDS011;1032;52.542;13.440;2023-06-26T10:01:15;5.87;;;5.37;;
2053;SDS011;1032;52.542;13.440;2023-06-26T10:03:41;5.73;;;5.23;;
2053;SDS011;1032;52.542;13.440;2023-06-26T10:06:09;5.60;;;5.10;;
2053;SDS011;1032;52.542;13.440;2023-06-26T10:08:37;6.10;;;5.50;;
2053;SDS011;1032;52.542;13.440;2023-06-26T10:11:05;5.70;;;5.20;;
2053;SDS011;1032;52.542;13.440;2023-06-26T10:13:37;5.60;;;5.10;;
2053;SDS011;1032;52.542;13.440;2023-06-26T10:16:06;6.60;;;5.97;;
2053;SDS011;1032;52.542;13.440;2023-06-26T10:18:34;6.67;;;5.33;;
2053;SDS011;1032;52.542;13.440;2023-06-26T10:21:04;9.53;;;5.43;;
2053;SDS011;1032;52.542;13.440;2023-06-26T10:23:32;5.63;;;5.13;;
2053;SDS011;1032;52.542;13.440;2023-06-26T10:26:00;6.40;;;5.20;;
2053;SDS011;1032;52.542;13.440;2023-06-26T10:28:27;6.07;;;5.43;;
2053;SDS011;1032;52.542;13.440;2023-06-26T10:30:57;5.13;;;4.63;;
2053;SDS011;1032;52.542;13.440;2023-06-26T10:33:25;5.37;;;4.87;;
2053;SDS011;1032;52.542;13.440;2023-06-26T10:35:53;6.93;;;5.47;;
2053;SDS011;1032;52.542;13.440;2023-06-26T10:38:47;7.07;;;5.33;;
2053;SDS011;1032;52.542;13.440;2023-06-26T10:41:15;6.07;;;4.93;;
2053;SDS011;1032;52.542;13.440;2023-06-26T10:43:48;6.67;;;4.90;;
2053;SDS011;1032;52.542;13.440;2023-06-26T10:46:17;5.53;;;5.00;;
2053;SDS011;1032;52.542;13.440;2023-06-26T10:48:56;5.07;;;4.57;;
2053;SDS011;1032;52.542;13.440;2023-06-26T10:51:24;5.17;;;4.67;;
2053;SDS011;1032;52.542;13.440;2023-06-26T10:53:53;5.23;;;4.30;;
2053;SDS011;1032;52.542;13.440;2023-06-26T10:56:20;5.20;;;4.63;;
2053;SDS011;1032;52.542;13.440;2023-06-26T10:58:47;6.83;;;4.80;;
2053;SDS011;1032;52.542;13.440;2023-06-26T11:01:15;5.77;;;4.93;;
2053;SDS011;1032;52.542;13.440;2023-06-26T11:03:55;6.00;;;4.57;;
2053;SDS011;1032;52.542;13.440;2023-06-26T11:06:30;5.43;;;4.93;;
2053;SDS011;1032;52.542;13.440;2023-06-26T11:09:00;7.13;;;4.60;;
2053;SDS011;1032;52.542;13.440;2023-06-26T11:14:27;6.93;;;6.00;;
2053;SDS011;1032;52.542;13.440;2023-06-26T11:16:56;5.70;;;5.20;;
2053;SDS011;1032;52.542;13.440;2023-06-26T11:19:24;6.20;;;4.80;;
2053;SDS011;1032;52.542;13.440;2023-06-26T11:21:55;4.93;;;4.53;;
2053;SDS011;1032;52.542;13.440;2023-06-26T11:24:25;7.00;;;5.10;;
2053;SDS011;1032;52.542;13.440;2023-06-26T11:26:52;8.63;;;7.77;;
2053;SDS011;1032;52.542;13.440;2023-06-26T11:29:18;6.00;;;5.20;;
2053;SDS011;1032;52.542;13.440;2023-06-26T11:31:45;8.13;;;6.03;;
2053;SDS011;1032;52.542;13.440;2023-06-26T11:34:13;5.93;;;5.33;;
2053;SDS011;1032;52.542;13.440;2023-06-26T11:36:41;5.60;;;5.10;;
2053;SDS011;1032;52.542;13.440;2023-06-26T11:39:11;6.47;;;5.40;;
2053;SDS011;1032;52.542;13.440;2023-06-26T11:41:38;5.70;;;5.20;;
2053;SDS011;1032;52.542;13.440;2023-06-26T11:44:06;6.50;;;4.33;;
2053;SDS011;1032;52.542;13.440;2023-06-26T11:46:34;5.70;;;4.57;;
2053;SDS011;1032;52.542;13.440;2023-06-26T11:49:02;5.53;;;4.97;;
2053;SDS011;1032;52.542;13.440;2023-06-26T11:51:31;5.63;;;5.13;;
2053;SDS011;1032;52.542;13.440;2023-06-26T11:54:00;5.40;;;4.90;;
2053;SDS011;1032;52.542;13.440;2023-06-26T11:56:27;7.67;;;4.83;;
2053;SDS011;1032;52.542;13.440;2023-06-26T11:58:55;5.70;;;5.20;;
2053;SDS011;1032;52.542;13.440;2023-06-26T12:01:22;5.87;;;4.70;;
2053;SDS011;1032;52.542;13.440;2023-06-26T12:03:49;6.40;;;5.70;;
2053;SDS011;1032;52.542;13.440;2023-06-26T12:06:17;6.43;;;5.30;;
2053;SDS011;1032;52.542;13.440;2023-06-26T12:08:45;6.27;;;5.67;;
2053;SDS011;1032;52.542;13.440;2023-06-26T12:11:12;6.47;;;4.70;;
2053;SDS011;1032;52.542;13.440;2023-06-26T12:13:39;5.80;;;5.30;;
2053;SDS011;1032;52.542;13.440;2023-06-26T12:16:06;6.20;;;5.60;;
2053;SDS011;1032;52.542;13.440;2023-06-26T12:18:34;5.93;;;5.43;;
2053;SDS011;1032;52.542;13.440;2023-06-26T12:21:01;5.93;;;5.43;;
2053;SDS011;1032;52.542;13.440;2023-06-26T12:23:31;9.00;;;5.87;;
2053;SDS011;1032;52.542;13.440;2023-06-26T12:26:15;6.67;;;5.93;;
2053;SDS011;1032;52.542;13.440;2023-06-26T12:28:43;5.63;;;5.10;;
2053;SDS011;1032;52.542;13.440;2023-06-26T12:31:14;6.37;;;5.60;;
2053;SDS011;1032;52.542;13.440;2023-06-26T12:33:42;6.60;;;5.77;;
2053;SDS011;1032;52.542;13.440;2023-06-26T12:36:10;5.60;;;5.10;;
2053;SDS011;1032;52.542;13.440;2023-06-26T12:38:37;5.80;;;5.10;;
2053;SDS011;1032;52.542;13.440;2023-06-26T12:41:05;6.80;;;5.77;;
2053;SDS011;1032;52.542;13.440;2023-06-26T12:43:38;6.60;;;5.90;;
2053;SDS011;1032;52.542;13.440;2023-06-26T12:46:05;6.37;;;5.60;;
2053;SDS011;1032;52.542;13.440;2023-06-26T12:48:38;6.10;;;5.50;;
2053;SDS011;1032;52.542;13.440;2023-06-26T12:51:09;5.70;;;5.20;;
2053;SDS011;1032;52.542;13.440;2023-06-26T12:53:36;6.43;;;5.93;;
2053;SDS011;1032;52.542;13.440;2023-06-26T12:56:06;8.07;;;7.37;;
2053;SDS011;1032;52.542;13.440;2023-06-26T12:58:33;11.50;;;6.50;;
2053;SDS011;1032;52.542;13.440;2023-06-26T13:01:00;7.47;;;6.77;;
2053;SDS011;1032;52.542;13.440;2023-06-26T13:03:29;12.43;;;5.93;;
2053;SDS011;1032;52.542;13.440;2023-06-26T13:05:56;7.57;;;6.87;;
2053;SDS011;1032;52.542;13.440;2023-06-26T13:08:23;6.90;;;6.27;;
2053;SDS011;1032;52.542;13.440;2023-06-26T13:10:49;7.20;;;5.93;;
2053;SDS011;1032;52.542;13.440;2023-06-26T13:13:17;6.53;;;5.57;;
2053;SDS011;1032;52.542;13.440;2023-06-26T13:15:44;6.00;;;5.40;;
2053;SDS011;1032;52.542;13.440;2023-06-26T13:18:10;6.20;;;5.70;;
2053;SDS011;1032;52.542;13.440;2023-06-26T13:20:37;8.23;;;6.27;;
2053;SDS011;1032;52.542;13.440;2023-06-26T13:23:04;6.07;;;5.47;;
2053;SDS011;1032;52.542;13.440;2023-06-26T13:25:31;6.50;;;5.90;;
2053;SDS011;1032;52.542;13.440;2023-06-26T13:27:58;9.80;;;7.10;;
2053;SDS011;1032;52.542;13.440;2023-06-26T13:30:25;7.90;;;6.23;;
2053;SDS011;1032;52.542;13.440;2023-06-26T13:32:52;10.37;;;6.50;;
2053;SDS011;1032;52.542;13.440;2023-06-26T13:35:19;9.03;;;6.87;;
2053;SDS011;1032;52.542;13.440;2023-06-26T13:37:46;6.83;;;6.10;;
2053;SDS011;1032;52.542;13.440;2023-06-26T13:40:13;7.33;;;6.43;;
2053;SDS011;1032;52.542;13.440;2023-06-26T13:42:39;11.50;;;7.00;;
2053;SDS011;1032;52.542;13.440;2023-06-26T13:45:07;7.10;;;6.40;;
2053;SDS011;1032;52.542;13.440;2023-06-26T13:47:36;6.90;;;6.30;;
2053;SDS011;1032;52.542;13.440;2023-06-26T13:50:06;7.63;;;6.60;;
2053;SDS011;1032;52.542;13.440;2023-06-26T13:52:33;10.20;;;7.20;;
2053;SDS011;1032;52.542;13.440;2023-06-26T13:55:00;10.97;;;7.53;;
2053;SDS011;1032;52.542;13.440;2023-06-26T13:57:29;7.03;;;6.33;;
2053;SDS011;1032;52.542;13.440;2023-06-26T13:59:56;6.93;;;6.23;;
2053;SDS011;1032;52.542;13.440;2023-06-26T14:02:22;7.33;;;6.40;;
2053;SDS011;1032;52.542;13.440;2023-06-26T14:04:50;6.70;;;6.10;;
2053;SDS011;1032;52.542;13.440;2023-06-26T14:07:17;7.57;;;6.87;;
2053;SDS011;1032;52.542;13.440;2023-06-26T14:09:44;6.93;;;6.33;;
2053;SDS011;1032;52.542;13.440;2023-06-26T14:12:10;9.77;;;7.30;;
2053;SDS011;1032;52.542;13.440;2023-06-26T14:14:37;7.53;;;6.83;;
2053;SDS011;1032;52.542;13.440;2023-06-26T14:17:04;22.33;;;8.90;;
2053;SDS011;1032;52.542;13.440;2023-06-26T14:19:31;13.80;;;9.70;;
2053;SDS011;1032;52.542;13.440;2023-06-26T14:21:59;13.80;;;7.30;;
2053;SDS011;1032;52.542;13.440;2023-06-26T14:24:26;11.03;;;6.70;;
2053;SDS011;1032;52.542;13.440;2023-06-26T14:26:53;10.43;;;7.20;;
2053;SDS011;1032;52.542;13.440;2023-06-26T14:29:19;12.03;;;7.07;;
2053;SDS011;1032;52.542;13.440;2023-06-26T14:31:46;18.17;;;8.37;;
2053;SDS011;1032;52.542;13.440;2023-06-26T14:34:13;14.90;;;6.83;;
2053;SDS011;1032;52.542;13.440;2023-06-26T14:36:39;20.03;;;8.80;;
2053;SDS011;1032;52.542;13.440;2023-06-26T14:39:07;15.97;;;8.27;;
2053;SDS011;1032;52.542;13.440;2023-06-26T14:41:34;15.17;;;9.60;;
2053;SDS011;1032;52.542;13.440;2023-06-26T14:44:00;12.63;;;7.50;;
2053;SDS011;1032;52.542;13.440;2023-06-26T14:46:27;11.50;;;7.10;;
2053;SDS011;1032;52.542;13.440;2023-06-26T14:48:54;8.97;;;5.90;;
2053;SDS011;1032;52.542;13.440;2023-06-26T14:51:21;9.60;;;6.70;;
2053;SDS011;1032;52.542;13.440;2023-06-26T14:53:47;9.43;;;7.17;;
2053;SDS011;1032;52.542;13.440;2023-06-26T14:56:15;10.60;;;7.60;;
2053;SDS011;1032;52.542;13.440;2023-06-26T14:58:42;12.33;;;8.90;;